Time;durP1;ratioP1;P1;durP2;ratioP2;P2;SDS_P1;SDS_P2;PMS_P1;PMS_P2;Temp;Humidity;BMP_temperature;BMP_pressure;BME280_temperature;BME280_humidity;BME280_pressure;Samples;Min_cycle;Max_cycle;Signal;HPM_P1;HPM_P2
2022/12/16 00:01:27;;;;;;;23.92;12.10;;;-2.40;99.90;;;;;;5079653;28;20291;-65
2022/12/16 00:03:57;;;;;;;23.08;10.23;;;-2.40;99.90;;;;;;5079644;28;20313;-65
2022/12/16 00:06:26;;;;;;;16.20;9.55;;;-2.50;99.90;;;;;;5080419;28;20636;-65
2022/12/16 00:08:56;;;;;;;17.55;10.82;;;-2.40;99.90;;;;;;5080077;28;20290;-65
2022/12/16 00:11:24;;;;;;;15.40;8.63;;;-2.40;99.90;;;;;;5079852;28;20296;-65
2022/12/16 00:13:52;;;;;;;19.55;10.45;;;-2.40;99.90;;;;;;5079883;28;20287;-64
2022/12/16 00:16:21;;;;;;;20.73;10.05;;;-2.40;99.90;;;;;;5079184;28;20259;-64
2022/12/16 00:18:49;;;;;;;17.75;8.73;;;-2.40;99.90;;;;;;5072777;28;20256;-66
2022/12/16 00:21:18;;;;;;;14.27;8.55;;;-2.40;99.90;;;;;;5062215;28;20291;-65
2022/12/16 00:23:46;;;;;;;11.50;8.82;;;-2.40;99.90;;;;;;5060149;28;20220;-66
2022/12/16 00:26:16;;;;;;;12.02;8.38;;;-2.30;99.90;;;;;;5059297;28;20264;-65
2022/12/16 00:28:44;;;;;;;16.60;8.75;;;-2.30;99.90;;;;;;5075725;28;20322;-65
2022/12/16 00:31:12;;;;;;;15.43;8.07;;;-2.30;99.90;;;;;;5073528;28;20280;-65
2022/12/16 00:33:40;;;;;;;17.63;8.93;;;-2.30;99.90;;;;;;5060839;28;20277;-65
2022/12/16 00:36:09;;;;;;;15.02;8.30;;;-2.30;99.90;;;;;;5070494;28;20226;-65
2022/12/16 00:38:38;;;;;;;16.23;9.38;;;-2.30;99.90;;;;;;5081362;28;20259;-65
2022/12/16 00:41:06;;;;;;;12.45;8.30;;;-2.30;99.90;;;;;;5081782;28;20208;-65
2022/12/16 00:43:36;;;;;;;12.40;8.32;;;-2.30;99.90;;;;;;5079449;28;20291;-65
2022/12/16 00:46:04;;;;;;;15.43;7.90;;;-2.30;99.90;;;;;;5072497;28;20212;-65
2022/12/16 00:48:32;;;;;;;16.90;9.07;;;-2.30;99.90;;;;;;5068057;28;20284;-65
2022/12/16 00:51:00;;;;;;;14.82;8.15;;;-2.30;99.90;;;;;;5060857;28;20287;-65
2022/12/16 00:53:28;;;;;;;15.35;8.25;;;-2.30;99.90;;;;;;5060345;28;20252;-65
2022/12/16 00:56:02;;;;;;;12.65;7.93;;;-2.30;99.90;;;;;;5060166;28;20208;-65
2022/12/16 00:58:30;;;;;;;16.85;8.73;;;-2.20;99.90;;;;;;5060155;28;20296;-65
2022/12/16 01:00:59;;;;;;;18.35;8.95;;;-2.20;99.90;;;;;;5059674;28;20279;-65
2022/12/16 01:03:28;;;;;;;16.98;9.82;;;-2.20;99.90;;;;;;5057282;28;20270;-64
2022/12/16 01:05:56;;;;;;;16.95;8.95;;;-2.30;99.90;;;;;;5059449;28;20315;-64
2022/12/16 01:08:24;;;;;;;14.80;8.23;;;-2.30;99.90;;;;;;5059992;28;20260;-64
2022/12/16 01:10:53;;;;;;;15.63;7.88;;;-2.30;99.90;;;;;;5059875;28;20287;-64
2022/12/16 01:13:21;;;;;;;13.15;7.90;;;-2.30;99.90;;;;;;5060512;28;20259;-64
2022/12/16 01:15:49;;;;;;;15.57;8.55;;;-2.30;99.90;;;;;;5060723;28;20346;-64
2022/12/16 01:18:20;;;;;;;16.80;7.88;;;-2.30;99.90;;;;;;5061297;28;20276;-64
2022/12/16 01:20:47;;;;;;;15.48;8.75;;;-2.30;99.90;;;;;;5059822;28;20283;-65
2022/12/16 01:23:15;;;;;;;15.18;9.23;;;-2.30;99.90;;;;;;5061463;28;20315;-65
2022/12/16 01:25:44;;;;;;;13.57;7.18;;;-2.30;99.90;;;;;;5079522;28;20286;-64
2022/12/16 01:28:12;;;;;;;18.20;9.45;;;-2.20;99.90;;;;;;5080614;28;20773;-65
2022/12/16 01:30:40;;;;;;;14.73;8.27;;;-2.20;99.90;;;;;;5081237;28;20259;-64
2022/12/16 01:33:09;;;;;;;17.65;7.10;;;-2.20;99.90;;;;;;5073261;28;20271;-64
2022/12/16 01:35:38;;;;;;;13.98;7.95;;;-2.20;99.90;;;;;;5078780;28;20267;-64
2022/12/16 01:38:06;;;;;;;15.60;8.27;;;-2.20;99.90;;;;;;5057914;28;20284;-65
2022/12/16 01:40:34;;;;;;;13.15;7.78;;;-2.20;99.90;;;;;;5061433;28;20260;-65
2022/12/16 01:43:06;;;;;;;15.07;8.18;;;-2.20;99.90;;;;;;5061533;28;20279;-64
2022/12/16 01:45:35;;;;;;;16.60;8.77;;;-2.20;99.90;;;;;;5060833;28;20272;-65
2022/12/16 01:48:10;;;;;;;13.88;8.48;;;-2.20;99.90;;;;;;5062353;28;20251;-64
2022/12/16 01:50:39;;;;;;;14.25;7.97;;;-2.20;99.90;;;;;;5061868;28;20271;-65
2022/12/16 01:53:08;;;;;;;15.50;8.70;;;-2.20;99.90;;;;;;5071607;28;20323;-65
2022/12/16 01:55:42;;;;;;;13.90;6.45;;;-2.20;99.90;;;;;;5060169;28;20260;-65
2022/12/16 01:58:15;;;;;;;11.70;7.30;;;-2.30;99.90;;;;;;5077533;28;20267;-64
2022/12/16 02:00:43;;;;;;;13.68;8.25;;;-2.30;99.90;;;;;;5082677;28;20325;-65
2022/12/16 02:03:11;;;;;;;16.35;9.15;;;-2.40;99.90;;;;;;5081665;28;20282;-64
2022/12/16 02:05:42;;;;;;;14.88;8.05;;;-2.40;99.90;;;;;;5081424;28;20275;-64
2022/12/16 02:08:12;;;;;;;16.67;7.45;;;-2.40;99.90;;;;;;5082574;28;20670;-64
2022/12/16 02:10:58;;;;;;;14.10;8.23;;;-2.40;99.90;;;;;;5061857;28;20253;-64
2022/12/16 02:13:39;;;;;;;14.90;8.25;;;-2.40;99.90;;;;;;5061717;28;20272;-64
2022/12/16 02:16:15;;;;;;;15.82;7.85;;;-2.50;99.90;;;;;;5060066;28;20398;-64
2022/12/16 02:18:51;;;;;;;16.55;8.45;;;-2.50;99.90;;;;;;5059278;28;20276;-64
2022/12/16 02:21:44;;;;;;;13.23;7.50;;;-2.50;99.90;;;;;;5058515;28;20248;-64
2022/12/16 02:24:44;;;;;;;18.52;9.65;;;-2.50;99.90;;;;;;5057354;28;20805;-64
2022/12/16 02:27:42;;;;;;;11.90;7.78;;;-2.50;99.90;;;;;;5060371;28;20276;-64
2022/12/16 02:30:44;;;;;;;13.10;6.72;;;-2.60;99.90;;;;;;5059108;28;20249;-64
2022/12/16 02:33:30;;;;;;;12.13;7.50;;;-2.60;99.90;;;;;;5060143;28;20252;-64
2022/12/16 02:36:06;;;;;;;12.70;8.38;;;-2.60;99.90;;;;;;5059836;28;20272;-64
2022/12/16 02:38:42;;;;;;;16.67;8.38;;;-2.60;99.90;;;;;;5058503;28;20615;-64
2022/12/16 02:41:17;;;;;;;15.35;7.05;;;-2.60;99.90;;;;;;5059109;28;20240;-64
2022/12/16 02:43:53;;;;;;;13.73;8.10;;;-2.60;99.90;;;;;;5058954;28;20354;-64
2022/12/16 02:46:25;;;;;;;13.25;6.80;;;-2.60;99.90;;;;;;5059240;28;20255;-65
2022/12/16 02:48:55;;;;;;;15.15;7.40;;;-2.60;99.90;;;;;;5057288;28;20248;-65
2022/12/16 02:51:25;;;;;;;13.40;7.68;;;-2.60;99.90;;;;;;5059678;28;20631;-64
2022/12/16 02:53:54;;;;;;;15.38;7.70;;;-2.60;99.90;;;;;;5067676;28;20271;-65
2022/12/16 02:56:36;;;;;;;15.75;7.93;;;-2.60;99.90;;;;;;5073017;28;20240;-65
2022/12/16 02:59:17;;;;;;;12.38;7.15;;;-2.60;99.90;;;;;;5055953;28;20232;-65
2022/12/16 03:01:50;;;;;;;23.83;8.60;;;-2.60;99.90;;;;;;5067599;28;20287;-65
2022/12/16 03:04:26;;;;;;;12.63;7.00;;;-2.60;99.90;;;;;;5077248;28;20211;-65
2022/12/16 03:06:56;;;;;;;12.55;8.05;;;-2.60;99.90;;;;;;5078102;28;20325;-64
2022/12/16 03:09:29;;;;;;;12.52;7.00;;;-2.60;99.90;;;;;;5078130;28;20260;-65
2022/12/16 03:11:59;;;;;;;12.82;7.60;;;-2.70;99.90;;;;;;5076823;28;20586;-65
2022/12/16 03:14:32;;;;;;;12.13;7.10;;;-2.70;99.90;;;;;;5074881;28;20233;-65
2022/12/16 03:17:01;;;;;;;14.55;8.55;;;-2.70;99.90;;;;;;5075413;28;20271;-65
2022/12/16 03:19:31;;;;;;;11.05;7.40;;;-2.70;99.90;;;;;;5076033;28;20210;-65
2022/12/16 03:22:03;;;;;;;10.85;6.55;;;-2.80;99.90;;;;;;5076042;28;20333;-64
2022/12/16 03:24:32;;;;;;;10.65;6.57;;;-2.70;99.90;;;;;;5076830;28;20261;-65
2022/12/16 03:27:09;;;;;;;15.85;8.52;;;-2.80;99.90;;;;;;5078823;28;20727;-65
2022/12/16 03:29:44;;;;;;;14.07;8.57;;;-2.80;99.90;;;;;;5077715;28;20233;-65
2022/12/16 03:32:16;;;;;;;14.98;7.80;;;-2.80;99.90;;;;;;5078596;28;20191;-65
2022/12/16 03:34:53;;;;;;;12.95;7.70;;;-2.80;99.90;;;;;;5079102;28;20613;-64
2022/12/16 03:37:24;;;;;;;17.52;7.60;;;-2.90;99.90;;;;;;5079586;28;20321;-64
2022/12/16 03:39:55;;;;;;;14.95;7.70;;;-2.90;99.90;;;;;;5079070;28;20622;-64
2022/12/16 03:42:24;;;;;;;13.88;8.23;;;-2.90;99.90;;;;;;5077254;28;20200;-64
2022/12/16 03:44:52;;;;;;;14.27;8.15;;;-2.90;99.90;;;;;;5077276;28;20622;-65
2022/12/16 03:47:21;;;;;;;12.48;7.57;;;-2.90;99.90;;;;;;5075427;28;20204;-65
2022/12/16 03:49:50;;;;;;;16.85;7.32;;;-2.90;99.90;;;;;;5076810;28;20208;-65
2022/12/16 03:52:18;;;;;;;14.68;7.38;;;-2.90;99.90;;;;;;5077164;28;20208;-65
2022/12/16 03:54:46;;;;;;;15.40;8.52;;;-2.90;99.90;;;;;;5074069;28;20196;-64
2022/12/16 03:57:14;;;;;;;12.70;6.90;;;-3.00;99.90;;;;;;5072656;28;20192;-64
2022/12/16 03:59:42;;;;;;;12.73;7.35;;;-3.00;99.90;;;;;;5060011;28;20228;-65
2022/12/16 04:02:10;;;;;;;15.80;7.85;;;-2.90;99.90;;;;;;5070541;28;20206;-65
2022/12/16 04:04:38;;;;;;;15.20;7.97;;;-3.00;99.90;;;;;;5058552;28;20200;-66
2022/12/16 04:07:23;;;;;;;10.98;6.05;;;-3.00;99.90;;;;;;5056762;28;20216;-66
2022/12/16 04:09:52;;;;;;;10.18;6.88;;;-3.10;99.90;;;;;;5078008;28;20202;-65
2022/12/16 04:26:17;;;;;;;15.80;8.00;;;-3.30;99.90;;;;;;5076237;28;20340;-65
2022/12/16 04:28:45;;;;;;;12.95;7.45;;;-3.20;99.90;;;;;;5075868;28;20204;-66
2022/12/16 04:31:13;;;;;;;11.93;7.15;;;-3.20;99.90;;;;;;5077335;28;20279;-66
